createdAt,value
2018-10-09T00:00:29.604Z,2.47
2018-10-09T00:02:57.245Z,3.33
2018-10-09T00:05:24.936Z,4.37
2018-10-09T00:07:52.616Z,2.00
2018-10-09T00:10:20.388Z,2.57
2018-10-09T00:12:48.064Z,2.10
2018-10-09T00:15:15.721Z,2.20
2018-10-09T00:17:43.373Z,1.93
2018-10-09T00:20:14.303Z,3.10
2018-10-09T00:22:42.012Z,4.50
2018-10-09T00:25:09.671Z,4.33
2018-10-09T00:27:37.333Z,2.37
2018-10-09T00:30:05.004Z,3.17
2018-10-09T00:32:32.653Z,4.03
2018-10-09T00:35:00.306Z,4.47
2018-10-09T00:37:27.940Z,6.03
2018-10-09T00:39:55.639Z,3.77
2018-10-09T00:42:23.285Z,3.40
2018-10-09T00:44:50.916Z,3.23
2018-10-09T00:47:18.608Z,2.40
2018-10-09T00:49:46.228Z,3.37
2018-10-09T00:52:13.860Z,3.53
2018-10-09T00:54:41.527Z,18.80
2018-10-09T00:57:09.196Z,3.83
2018-10-09T00:59:36.862Z,7.13
2018-10-09T01:02:04.551Z,4.50
2018-10-09T01:04:32.221Z,3.20
2018-10-09T01:06:59.840Z,3.13
2018-10-09T01:09:27.473Z,2.13
2018-10-09T01:11:55.245Z,2.57
2018-10-09T01:14:22.860Z,2.23
2018-10-09T01:16:50.504Z,2.40
2018-10-09T01:19:18.186Z,2.00
2018-10-09T01:21:45.819Z,1.90
2018-10-09T01:24:13.461Z,1.90
2018-10-09T01:26:41.233Z,1.20
2018-10-09T01:29:08.896Z,1.63
2018-10-09T01:31:36.513Z,2.10
2018-10-09T01:34:04.181Z,1.90
2018-10-09T01:36:31.800Z,1.50
2018-10-09T01:38:59.458Z,2.43
2018-10-09T01:41:27.104Z,1.73
2018-10-09T01:43:54.760Z,2.00
2018-10-09T01:46:22.432Z,1.70
2018-10-09T01:48:50.057Z,2.37
2018-10-09T01:51:17.716Z,2.63
2018-10-09T01:53:45.373Z,2.43
2018-10-09T01:56:13.029Z,2.60
2018-10-09T01:58:40.652Z,2.53
2018-10-09T02:01:08.290Z,2.67
2018-10-09T02:03:35.929Z,1.87
2018-10-09T02:06:03.597Z,1.97
2018-10-09T02:08:31.380Z,1.63
2018-10-09T02:10:59.124Z,2.00
2018-10-09T02:13:26.754Z,1.80
2018-10-09T02:15:54.433Z,2.87
2018-10-09T02:18:22.061Z,3.10
2018-10-09T02:20:49.681Z,1.93
2018-10-09T02:23:17.392Z,3.00
2018-10-09T02:25:45.010Z,3.00
2018-10-09T02:28:12.668Z,2.87
2018-10-09T02:30:40.297Z,2.67
2018-10-09T02:33:08.045Z,2.00
2018-10-09T02:35:35.668Z,2.13
2018-10-09T02:38:03.296Z,3.43
2018-10-09T02:40:30.983Z,3.20
2018-10-09T02:42:58.609Z,3.50
2018-10-09T02:45:26.239Z,3.70
2018-10-09T02:47:53.936Z,3.63
2018-10-09T02:50:21.581Z,3.30
2018-10-09T02:52:49.221Z,2.53
2018-10-09T02:55:16.882Z,2.70
2018-10-09T02:57:44.824Z,2.80
2018-10-09T03:00:12.485Z,3.50
2018-10-09T03:02:40.164Z,4.13
2018-10-09T03:05:07.849Z,4.87
2018-10-09T03:07:35.520Z,4.77
2018-10-09T03:10:03.316Z,3.60
2018-10-09T03:12:30.956Z,3.90
2018-10-09T03:14:58.633Z,2.40
2018-10-09T03:17:26.294Z,3.13
2018-10-09T03:19:53.949Z,4.10
2018-10-09T03:22:21.620Z,4.40
2018-10-09T03:24:49.301Z,4.93
2018-10-09T03:27:16.924Z,4.87
2018-10-09T03:29:44.544Z,6.93
2018-10-09T03:32:12.237Z,4.40
2018-10-09T03:34:39.872Z,6.57
2018-10-09T03:37:07.496Z,4.73
2018-10-09T03:39:35.178Z,4.17
2018-10-09T03:42:02.900Z,6.23
2018-10-09T03:44:30.549Z,7.00
2018-10-09T03:46:58.216Z,5.73
2018-10-09T03:49:25.848Z,3.67
2018-10-09T03:51:53.488Z,5.23
2018-10-09T03:54:21.128Z,3.60
2018-10-09T03:56:48.762Z,3.93
2018-10-09T03:59:16.492Z,2.90
2018-10-09T04:01:44.133Z,3.57
2018-10-09T04:04:11.754Z,3.20
2018-10-09T04:06:39.455Z,2.80
2018-10-09T04:09:09.407Z,2.60
2018-10-09T04:11:37.009Z,3.27
2018-10-09T04:14:04.705Z,2.90
2018-10-09T04:16:32.336Z,3.37
2018-10-09T04:19:00.142Z,3.60
2018-10-09T04:21:27.788Z,3.97
2018-10-09T04:23:55.413Z,4.77
2018-10-09T04:26:23.034Z,3.77
2018-10-09T04:28:50.696Z,4.33
2018-10-09T04:31:18.341Z,4.80
2018-10-09T04:33:45.987Z,4.20
2018-10-09T04:36:13.625Z,3.93
2018-10-09T04:38:41.256Z,2.90
2018-10-09T04:41:08.894Z,2.67
2018-10-09T04:43:36.591Z,2.30
2018-10-09T04:46:04.216Z,2.47
2018-10-09T04:48:31.908Z,3.33
2018-10-09T04:50:59.545Z,2.70
2018-10-09T04:53:27.196Z,2.87
2018-10-09T04:55:54.860Z,1.70
2018-10-09T04:58:22.498Z,2.10
2018-10-09T05:00:50.405Z,2.13
2018-10-09T05:03:18.045Z,2.20
2018-10-09T05:05:45.680Z,2.10
2018-10-09T05:08:13.316Z,2.90
2018-10-09T05:10:40.978Z,3.00
2018-10-09T05:13:08.662Z,2.20
2018-10-09T05:15:36.388Z,1.97
2018-10-09T05:18:04.025Z,3.00
2018-10-09T05:20:31.748Z,1.80
2018-10-09T05:22:59.368Z,2.77
2018-10-09T05:25:27.021Z,2.90
2018-10-09T05:27:54.668Z,3.27
2018-10-09T05:30:22.360Z,2.63
2018-10-09T05:32:50.036Z,2.50
2018-10-09T05:35:17.706Z,2.90
2018-10-09T05:37:45.419Z,2.90
2018-10-09T05:40:13.098Z,1.87
2018-10-09T05:42:40.753Z,2.80
2018-10-09T05:45:08.773Z,2.10
2018-10-09T05:47:36.496Z,2.90
2018-10-09T05:50:05.208Z,3.37
2018-10-09T05:52:33.534Z,2.40
2018-10-09T05:55:01.147Z,2.87
2018-10-09T05:57:28.769Z,2.63
2018-10-09T05:59:56.474Z,3.03
2018-10-09T06:02:24.149Z,3.07
2018-10-09T06:04:51.776Z,2.97
2018-10-09T06:07:19.456Z,3.30
2018-10-09T06:09:47.161Z,2.90
2018-10-09T06:12:14.945Z,3.37
2018-10-09T06:14:42.605Z,3.67
2018-10-09T06:17:10.308Z,3.47
2018-10-09T06:19:37.935Z,3.33
2018-10-09T06:22:05.739Z,4.70
2018-10-09T06:24:33.417Z,3.83
2018-10-09T06:27:01.038Z,2.97
2018-10-09T06:29:28.679Z,3.00
2018-10-09T06:31:56.336Z,3.60
2018-10-09T06:34:24.034Z,3.33
2018-10-09T06:36:51.712Z,2.77
2018-10-09T06:39:19.340Z,3.00
2018-10-09T06:41:47.020Z,2.30
2018-10-09T06:44:14.665Z,2.67
2018-10-09T06:46:42.369Z,2.87
2018-10-09T06:49:10.025Z,3.20
2018-10-09T06:51:37.668Z,2.57
2018-10-09T06:54:05.453Z,2.67
2018-10-09T06:56:33.044Z,2.13
2018-10-09T06:59:00.676Z,2.57
2018-10-09T07:01:28.309Z,2.77
2018-10-09T07:03:55.949Z,2.67
2018-10-09T07:06:23.597Z,2.10
2018-10-09T07:08:51.266Z,2.50
2018-10-09T07:11:19.048Z,2.30
2018-10-09T07:13:46.599Z,2.53
2018-10-09T07:16:14.253Z,2.47
2018-10-09T07:18:41.917Z,2.07
2018-10-09T07:21:09.549Z,2.90
2018-10-09T07:23:37.237Z,3.03
2018-10-09T07:26:04.908Z,1.97
2018-10-09T07:28:32.542Z,2.27
2018-10-09T07:31:00.238Z,2.37
2018-10-09T07:33:27.872Z,2.70
2018-10-09T07:35:55.545Z,4.17
2018-10-09T07:38:23.453Z,4.10
2018-10-09T07:40:51.081Z,4.50
2018-10-09T07:43:18.855Z,3.13
2018-10-09T07:45:46.509Z,3.10
2018-10-09T07:48:14.136Z,3.70
2018-10-09T07:50:41.812Z,3.83
2018-10-09T07:53:09.448Z,2.80
2018-10-09T07:55:37.085Z,3.00
2018-10-09T07:58:04.735Z,2.70
2018-10-09T08:00:32.389Z,3.53
2018-10-09T08:03:00.013Z,2.80
2018-10-09T08:05:27.682Z,2.67
2018-10-09T08:07:55.332Z,2.23
2018-10-09T08:10:23.081Z,3.00
2018-10-09T08:12:50.705Z,3.20
2018-10-09T08:15:18.365Z,3.23
2018-10-09T08:17:45.997Z,2.80
2018-10-09T08:20:13.634Z,2.63
2018-10-09T08:22:41.461Z,3.50
2018-10-09T08:25:09.026Z,2.13
2018-10-09T08:27:36.676Z,2.47
2018-10-09T08:30:04.479Z,1.97
2018-10-09T08:32:32.121Z,1.83
2018-10-09T08:34:59.764Z,1.40
2018-10-09T08:37:27.469Z,1.70
2018-10-09T08:39:55.118Z,1.73
2018-10-09T08:42:22.792Z,1.30
2018-10-09T08:44:50.482Z,1.60
2018-10-09T08:47:18.101Z,2.00
2018-10-09T08:49:45.791Z,1.97
2018-10-09T08:52:13.485Z,1.67
2018-10-09T08:54:41.155Z,1.80
2018-10-09T08:57:08.818Z,1.70
2018-10-09T08:59:36.523Z,1.93
2018-10-09T09:02:04.172Z,2.50
2018-10-09T09:04:31.848Z,2.10
2018-10-09T09:06:59.622Z,2.27
2018-10-09T09:09:27.302Z,2.60
2018-10-09T09:11:54.955Z,2.37
2018-10-09T09:14:22.626Z,2.70
2018-10-09T09:16:50.264Z,2.67
2018-10-09T09:19:17.989Z,2.67
2018-10-09T09:21:45.598Z,2.70
2018-10-09T09:24:13.218Z,2.43
2018-10-09T09:26:41.001Z,3.77
2018-10-09T09:29:08.641Z,2.20
2018-10-09T09:31:36.301Z,2.43
2018-10-09T09:34:03.941Z,2.30
2018-10-09T09:36:31.622Z,2.40
2018-10-09T09:38:59.252Z,2.47
2018-10-09T09:41:27.319Z,2.50
2018-10-09T09:43:54.969Z,2.47
2018-10-09T09:46:22.751Z,2.57
2018-10-09T09:48:50.389Z,2.87
2018-10-09T09:51:18.022Z,2.83
2018-10-09T09:53:45.737Z,2.80
2018-10-09T09:56:13.564Z,2.30
2018-10-09T09:58:41.380Z,2.37
2018-10-09T10:01:10.178Z,2.67
2018-10-09T10:03:39.102Z,2.20
2018-10-09T10:06:07.173Z,2.17
2018-10-09T10:08:34.881Z,2.20
2018-10-09T10:11:02.760Z,2.47
2018-10-09T10:13:30.566Z,2.60
2018-10-09T10:15:58.370Z,1.67
2018-10-09T10:18:26.685Z,1.90
2018-10-09T10:20:54.458Z,2.00
2018-10-09T10:23:22.365Z,1.60
2018-10-09T10:25:50.006Z,1.50
2018-10-09T10:28:17.877Z,1.57
2018-10-09T10:30:45.864Z,1.60
2018-10-09T10:33:13.809Z,1.50
2018-10-09T10:35:41.498Z,1.10
2018-10-09T10:38:09.100Z,1.30
2018-10-09T10:40:36.827Z,1.57
2018-10-09T10:43:04.549Z,1.17
2018-10-09T10:45:32.213Z,1.20
2018-10-09T10:47:59.918Z,1.47
2018-10-09T10:50:27.637Z,1.47
2018-10-09T10:52:55.244Z,1.20
2018-10-09T10:55:22.901Z,0.97
2018-10-09T10:57:50.628Z,1.13
2018-10-09T11:00:19.544Z,1.10
2018-10-09T11:02:47.192Z,1.40
2018-10-09T11:05:14.925Z,1.27
2018-10-09T11:07:42.613Z,1.33
2018-10-09T11:10:10.281Z,1.30
2018-10-09T11:12:37.969Z,1.00
2018-10-09T11:15:05.657Z,1.60
2018-10-09T11:17:34.216Z,1.17
2018-10-09T11:20:01.837Z,1.03
2018-10-09T11:22:29.497Z,1.30
2018-10-09T11:24:57.126Z,1.10
2018-10-09T11:27:24.793Z,1.20
2018-10-09T11:29:52.464Z,1.10
2018-10-09T11:32:20.116Z,1.23
2018-10-09T11:34:47.793Z,1.20
2018-10-09T11:37:15.425Z,1.20
2018-10-09T11:39:43.141Z,1.00
2018-10-09T11:42:10.770Z,0.97
2018-10-09T11:44:38.413Z,1.00
2018-10-09T11:47:06.206Z,1.47
2018-10-09T11:49:33.893Z,0.83
2018-10-09T11:52:01.545Z,1.20
2018-10-09T11:54:29.190Z,0.87
2018-10-09T11:56:56.852Z,0.90
2018-10-09T11:59:24.486Z,0.93
2018-10-09T12:01:52.195Z,1.20
2018-10-09T12:04:19.882Z,0.90
2018-10-09T12:06:47.512Z,0.87
2018-10-09T12:09:15.192Z,0.80
2018-10-09T12:11:42.863Z,0.80
2018-10-09T12:14:11.461Z,1.00
2018-10-09T12:16:39.117Z,0.53
2018-10-09T12:19:06.835Z,0.80
2018-10-09T12:21:34.657Z,0.70
2018-10-09T12:24:02.253Z,1.10
2018-10-09T12:26:29.925Z,1.20
2018-10-09T12:28:57.579Z,0.87
2018-10-09T12:31:25.242Z,1.33
2018-10-09T12:33:52.907Z,1.50
2018-10-09T12:36:20.604Z,1.47
2018-10-09T12:38:48.232Z,1.10
2018-10-09T12:41:15.894Z,1.40
2018-10-09T12:43:43.705Z,0.93
2018-10-09T12:46:11.452Z,0.90
2018-10-09T12:48:39.118Z,1.00
2018-10-09T12:51:06.793Z,0.93
2018-10-09T12:53:34.512Z,0.90
2018-10-09T12:56:02.189Z,0.70
2018-10-09T12:58:29.835Z,1.10
2018-10-09T13:00:57.487Z,1.03
2018-10-09T13:03:25.314Z,1.20
2018-10-09T13:05:53.378Z,0.90
2018-10-09T13:08:21.012Z,1.27
2018-10-09T13:10:48.657Z,0.97
2018-10-09T13:13:16.332Z,1.10
2018-10-09T13:15:43.999Z,0.97
2018-10-09T13:18:11.621Z,1.13
2018-10-09T13:20:39.256Z,0.77
2018-10-09T13:23:07.007Z,1.20
2018-10-09T13:25:34.618Z,1.30
2018-10-09T13:28:02.299Z,1.30
2018-10-09T13:30:30.025Z,0.80
2018-10-09T13:32:57.665Z,1.00
2018-10-09T13:35:25.308Z,1.10
2018-10-09T13:37:52.956Z,1.03
2018-10-09T13:40:20.671Z,0.77
2018-10-09T13:42:48.293Z,1.00
2018-10-09T13:45:15.961Z,1.00
2018-10-09T13:47:43.738Z,1.03
2018-10-09T13:50:11.313Z,1.00
2018-10-09T13:52:39.075Z,1.20
2018-10-09T13:55:06.891Z,0.90
2018-10-09T13:57:34.817Z,1.23
2018-10-09T14:00:02.714Z,0.90
2018-10-09T14:02:30.403Z,0.80
2018-10-09T14:04:58.946Z,0.70
2018-10-09T14:07:26.744Z,1.10
2018-10-09T14:10:00.717Z,0.83
2018-10-09T14:12:30.257Z,1.37
2018-10-09T14:14:58.038Z,0.80
2018-10-09T14:17:25.803Z,0.70
2018-10-09T14:19:53.513Z,0.77
2018-10-09T14:22:21.213Z,1.07
2018-10-09T14:24:48.964Z,1.03
2018-10-09T14:27:16.601Z,1.03
2018-10-09T14:29:44.301Z,0.70
2018-10-09T14:32:12.246Z,0.80
2018-10-09T14:34:39.881Z,1.77
2018-10-09T14:37:07.550Z,0.70
2018-10-09T14:39:35.368Z,0.90
2018-10-09T14:42:03.017Z,0.70
2018-10-09T14:44:30.633Z,0.70
2018-10-09T14:46:58.296Z,0.70
2018-10-09T14:49:25.918Z,0.90
2018-10-09T14:51:53.684Z,0.77
2018-10-09T14:54:21.535Z,0.97
2018-10-09T14:56:49.256Z,0.50
2018-10-09T14:59:16.913Z,0.90
2018-10-09T15:01:44.592Z,0.80
2018-10-09T15:04:12.221Z,0.63
2018-10-09T15:06:39.972Z,1.10
2018-10-09T15:09:11.944Z,0.70
2018-10-09T15:11:39.770Z,0.57
2018-10-09T15:14:07.554Z,1.27
2018-10-09T15:16:35.476Z,0.70
2018-10-09T15:19:03.171Z,0.70
2018-10-09T15:21:30.793Z,0.80
2018-10-09T15:23:58.429Z,0.80
2018-10-09T15:26:26.247Z,0.50
2018-10-09T15:28:53.944Z,0.80
2018-10-09T15:31:23.416Z,0.70
2018-10-09T15:33:52.093Z,1.00
2018-10-09T15:36:19.807Z,0.80
2018-10-09T15:38:47.598Z,0.77
2018-10-09T15:41:15.497Z,0.77
2018-10-09T15:43:43.120Z,1.17
2018-10-09T15:46:10.828Z,0.97
2018-10-09T15:48:38.497Z,1.00
2018-10-09T15:51:06.331Z,0.87
2018-10-09T15:53:33.976Z,0.90
2018-10-09T15:56:01.720Z,0.80
2018-10-09T15:58:29.366Z,1.17
2018-10-09T16:00:56.983Z,1.00
2018-10-09T16:03:24.702Z,0.80
2018-10-09T16:05:52.384Z,0.90
2018-10-09T16:08:20.025Z,0.90
2018-10-09T16:10:47.644Z,0.90
2018-10-09T16:13:15.270Z,0.77
2018-10-09T16:15:42.997Z,0.93
2018-10-09T16:18:10.697Z,0.60
2018-10-09T16:20:38.353Z,1.00
2018-10-09T16:23:06.092Z,1.07
2018-10-09T16:25:33.743Z,1.10
2018-10-09T16:28:01.453Z,0.80
2018-10-09T16:30:29.141Z,1.00
2018-10-09T16:32:56.901Z,1.47
2018-10-09T16:35:24.545Z,1.10
2018-10-09T16:37:52.189Z,1.67
2018-10-09T16:40:19.870Z,1.00
2018-10-09T16:42:47.526Z,0.90
2018-10-09T16:45:15.161Z,0.80
2018-10-09T16:47:42.877Z,0.90
2018-10-09T16:50:10.553Z,1.20
2018-10-09T16:52:38.177Z,1.27
2018-10-09T16:55:05.893Z,0.80
2018-10-09T16:57:33.507Z,1.20
2018-10-09T17:00:01.177Z,1.00
2018-10-09T17:02:28.794Z,0.90
2018-10-09T17:04:56.460Z,0.83
2018-10-09T17:07:24.089Z,0.90
2018-10-09T17:09:51.776Z,0.77
2018-10-09T17:12:19.393Z,0.80
2018-10-09T17:14:47.373Z,0.60
2018-10-09T17:17:15.029Z,0.93
2018-10-09T17:19:42.666Z,1.27
2018-10-09T17:22:10.382Z,1.00
2018-10-09T17:24:38.008Z,0.93
2018-10-09T17:27:05.654Z,1.00
2018-10-09T17:29:33.312Z,0.77
2018-10-09T17:32:00.942Z,0.93
2018-10-09T17:34:28.598Z,1.00
2018-10-09T17:36:56.278Z,0.90
2018-10-09T17:39:24.048Z,1.03
2018-10-09T17:41:52.600Z,1.07
2018-10-09T17:44:20.249Z,1.00
2018-10-09T17:46:48.002Z,0.93
2018-10-09T17:49:15.573Z,0.80
2018-10-09T17:51:43.228Z,1.70
2018-10-09T17:54:10.880Z,1.13
2018-10-09T17:56:38.526Z,1.07
2018-10-09T17:59:06.345Z,0.93
2018-10-09T18:01:33.999Z,0.90
2018-10-09T18:04:01.634Z,0.70
2018-10-09T18:06:29.438Z,1.30
2018-10-09T18:08:57.163Z,1.40
2018-10-09T18:11:25.164Z,1.13
2018-10-09T18:13:52.842Z,1.10
2018-10-09T18:16:20.552Z,1.30
2018-10-09T18:18:48.222Z,1.40
2018-10-09T18:21:15.941Z,1.53
2018-10-09T18:23:43.578Z,1.20
2018-10-09T18:26:11.275Z,1.07
2018-10-09T18:28:38.929Z,1.40
2018-10-09T18:31:06.674Z,1.33
2018-10-09T18:33:34.856Z,1.23
2018-10-09T18:36:02.848Z,1.40
2018-10-09T18:38:30.480Z,1.20
2018-10-09T18:40:58.150Z,0.93
2018-10-09T18:43:25.827Z,1.20
2018-10-09T18:45:53.458Z,1.10
2018-10-09T18:48:21.056Z,1.10
2018-10-09T18:50:48.717Z,1.20
2018-10-09T18:53:16.337Z,1.30
2018-10-09T18:55:43.952Z,1.40
2018-10-09T18:58:11.601Z,1.30
2018-10-09T19:00:39.241Z,1.50
2018-10-09T19:03:06.997Z,1.30
2018-10-09T19:05:34.630Z,1.20
2018-10-09T19:08:02.246Z,1.10
2018-10-09T19:10:29.929Z,1.03
2018-10-09T19:12:57.577Z,1.00
2018-10-09T19:15:25.213Z,1.47
2018-10-09T19:17:52.862Z,1.10
2018-10-09T19:20:20.541Z,1.20
2018-10-09T19:22:48.193Z,0.90
2018-10-09T19:25:15.857Z,1.37
2018-10-09T19:27:43.465Z,1.07
2018-10-09T19:30:11.090Z,1.27
2018-10-09T19:32:38.892Z,1.10
2018-10-09T19:35:06.549Z,1.80
2018-10-09T19:37:34.313Z,1.40
2018-10-09T19:40:01.934Z,1.30
2018-10-09T19:42:29.743Z,1.30
2018-10-09T19:44:57.368Z,1.70
2018-10-09T19:47:25.008Z,1.50
2018-10-09T19:49:52.651Z,1.17
2018-10-09T19:52:20.357Z,1.33
2018-10-09T19:54:48.098Z,1.47
2018-10-09T19:57:15.713Z,1.30
2018-10-09T19:59:43.392Z,1.20
2018-10-09T20:02:11.436Z,1.40
2018-10-09T20:04:39.433Z,1.50
2018-10-09T20:07:07.136Z,1.30
2018-10-09T20:09:34.797Z,1.50
2018-10-09T20:12:02.465Z,1.10
2018-10-09T20:14:30.585Z,1.27
2018-10-09T20:16:58.166Z,1.10
2018-10-09T20:19:26.364Z,1.70
2018-10-09T20:21:54.046Z,1.50
2018-10-09T20:24:21.723Z,1.50
2018-10-09T20:26:49.366Z,1.60
2018-10-09T20:29:17.651Z,1.27
2018-10-09T20:31:45.302Z,1.30
2018-10-09T20:34:12.974Z,1.43
2018-10-09T20:36:40.584Z,1.33
2018-10-09T20:39:08.248Z,1.10
2018-10-09T20:41:35.881Z,1.37
2018-10-09T20:44:03.511Z,1.53
2018-10-09T20:46:31.210Z,1.67
2018-10-09T20:48:58.861Z,2.03
2018-10-09T20:51:26.501Z,1.90
2018-10-09T20:53:54.129Z,1.27
2018-10-09T20:56:21.808Z,1.60
2018-10-09T20:58:49.488Z,2.13
2018-10-09T21:01:17.356Z,1.60
2018-10-09T21:03:45.091Z,1.50
2018-10-09T21:06:14.394Z,1.37
2018-10-09T21:08:42.825Z,2.10
2018-10-09T21:11:10.520Z,1.87
2018-10-09T21:13:38.524Z,1.53
2018-10-09T21:16:06.264Z,2.90
2018-10-09T21:18:33.945Z,1.97
2018-10-09T21:21:01.591Z,1.70
2018-10-09T21:23:29.221Z,1.67
2018-10-09T21:25:56.958Z,1.57
2018-10-09T21:28:24.803Z,1.97
2018-10-09T21:30:52.719Z,1.90
2018-10-09T21:33:20.441Z,1.80
2018-10-09T21:35:48.105Z,1.80
2018-10-09T21:38:15.713Z,1.90
2018-10-09T21:40:43.407Z,2.40
2018-10-09T21:43:11.840Z,2.30
2018-10-09T21:45:39.440Z,1.97
2018-10-09T21:48:07.120Z,1.40
2018-10-09T21:50:34.751Z,1.70
2018-10-09T21:53:02.373Z,1.77
2018-10-09T21:55:30.367Z,1.67
2018-10-09T21:57:58.416Z,2.33
2018-10-09T22:00:26.237Z,1.90
2018-10-09T22:02:53.842Z,1.87
2018-10-09T22:05:21.452Z,1.40
2018-10-09T22:07:49.285Z,1.90
2018-10-09T22:10:17.054Z,1.43
2018-10-09T22:12:44.855Z,1.57
2018-10-09T22:15:12.538Z,1.60
2018-10-09T22:17:40.148Z,2.00
2018-10-09T22:20:07.958Z,2.20
2018-10-09T22:22:35.601Z,1.80
2018-10-09T22:25:03.437Z,1.70
2018-10-09T22:27:31.287Z,1.67
2018-10-09T22:29:58.896Z,1.80
2018-10-09T22:32:26.721Z,1.70
2018-10-09T22:34:55.278Z,2.03
2018-10-09T22:37:22.961Z,2.00
2018-10-09T22:39:50.658Z,2.50
2018-10-09T22:42:18.329Z,2.27
2018-10-09T22:44:45.996Z,2.33
2018-10-09T22:47:13.644Z,2.30
2018-10-09T22:49:41.280Z,2.00
2018-10-09T22:52:08.910Z,2.07
2018-10-09T22:54:36.533Z,1.80
2018-10-09T22:57:04.261Z,2.27
2018-10-09T22:59:31.884Z,1.80
2018-10-09T23:01:59.508Z,1.80
2018-10-09T23:04:27.164Z,2.40
2018-10-09T23:06:54.795Z,1.73
2018-10-09T23:09:22.437Z,1.80
2018-10-09T23:11:50.104Z,1.13
2018-10-09T23:14:17.748Z,1.90
2018-10-09T23:16:45.388Z,1.80
2018-10-09T23:19:13.058Z,2.77
2018-10-09T23:21:40.692Z,2.43
2018-10-09T23:24:08.484Z,1.30
2018-10-09T23:26:36.121Z,1.70
2018-10-09T23:29:03.833Z,1.47
2018-10-09T23:31:31.455Z,2.10
2018-10-09T23:33:59.109Z,1.60
2018-10-09T23:36:26.769Z,1.97
2018-10-09T23:38:54.392Z,1.80
2018-10-09T23:41:22.161Z,0.80
2018-10-09T23:43:49.800Z,1.30
2018-10-09T23:46:17.429Z,1.20
2018-10-09T23:48:45.105Z,1.27
2018-10-09T23:51:12.798Z,1.97
2018-10-09T23:53:40.439Z,2.03
2018-10-09T23:56:08.064Z,1.50
2018-10-09T23:58:35.771Z,1.30
